Time;durP1;ratioP1;P1;durP2;ratioP2;P2;SDS_P1;SDS_P2;PMS_P1;PMS_P2;Temp;Humidity;BMP_temperature;BMP_pressure;BME280_temperature;BME280_humidity;BME280_pressure;Samples;Min_cycle;Max_cycle;Signal;HPM_P1;HPM_P2
2023/07/14 00:00:31;;;;;;;10.82;8.15;;;;;;;;;;10262373;28;20460;-73
2023/07/14 00:05:31;;;;;;;9.52;8.52;;;;;;;;;;10275470;28;20494;-72
2023/07/14 00:10:34;;;;;;;9.40;8.50;;;;;;;;;;10266468;28;20041;-71
2023/07/14 00:15:37;;;;;;;12.07;8.97;;;;;;;;;;10296653;28;20041;-70
2023/07/14 00:20:34;;;;;;;8.82;7.78;;;;;;;;;;10262013;28;20597;-71
2023/07/14 00:25:37;;;;;;;9.18;8.27;;;;;;;;;;10260042;28;20080;-72
2023/07/14 00:30:34;;;;;;;15.25;9.23;;;;;;;;;;10261754;28;20048;-71
2023/07/14 00:35:36;;;;;;;9.40;8.38;;;;;;;;;;10283201;28;20064;-71
2023/07/14 00:40:42;;;;;;;11.40;9.23;;;;;;;;;;10257425;28;20516;-71
2023/07/14 00:45:45;;;;;;;9.75;8.75;;;;;;;;;;10264664;28;20135;-71
2023/07/14 00:50:54;;;;;;;10.82;8.10;;;;;;;;;;10263072;28;20077;-71
2023/07/14 00:55:58;;;;;;;9.23;8.43;;;;;;;;;;10269432;28;20069;-70
2023/07/14 01:01:22;;;;;;;8.55;7.75;;;;;;;;;;10264203;28;20506;-71
2023/07/14 01:06:29;;;;;;;9.07;8.18;;;;;;;;;;10272876;28;20682;-71
2023/07/14 01:11:31;;;;;;;10.77;8.07;;;;;;;;;;10274244;28;20047;-71
2023/07/14 01:16:39;;;;;;;8.70;7.90;;;;;;;;;;10266358;28;20045;-71
2023/07/14 01:21:40;;;;;;;8.32;7.50;;;;;;;;;;10270804;28;20534;-70
2023/07/14 01:26:40;;;;;;;8.55;7.57;;;;;;;;;;10275733;28;20496;-71
2023/07/14 01:31:37;;;;;;;9.73;7.80;;;;;;;;;;10269733;28;20408;-71
2023/07/14 01:36:42;;;;;;;8.50;7.50;;;;;;;;;;10272512;28;20052;-71
2023/07/14 01:41:39;;;;;;;9.15;7.20;;;;;;;;;;10277210;28;20045;-71
2023/07/14 01:46:41;;;;;;;11.48;8.30;;;;;;;;;;10268815;28;20499;-71
2023/07/14 01:51:43;;;;;;;9.35;7.88;;;;;;;;;;10265283;28;20068;-71
2023/07/14 01:56:41;;;;;;;8.90;8.00;;;;;;;;;;10265509;28;20055;-73
2023/07/14 02:01:41;;;;;;;10.40;7.90;;;;;;;;;;10272532;28;20123;-73
2023/07/14 02:06:41;;;;;;;9.30;8.48;;;;;;;;;;10270932;28;20044;-73
2023/07/14 02:11:43;;;;;;;9.38;8.48;;;;;;;;;;10284429;28;20048;-73
2023/07/14 02:16:40;;;;;;;9.05;8.15;;;;;;;;;;10269205;28;20107;-73
2023/07/14 02:21:40;;;;;;;9.00;8.05;;;;;;;;;;10265266;28;20038;-72
2023/07/14 02:26:41;;;;;;;9.80;8.80;;;;;;;;;;10268596;28;20052;-72
2023/07/14 02:32:01;;;;;;;8.93;8.02;;;;;;;;;;10281842;28;20140;-73
2023/07/14 02:36:57;;;;;;;9.40;8.02;;;;;;;;;;10259875;28;20052;-72
2023/07/14 02:42:03;;;;;;;10.40;9.45;;;;;;;;;;10269027;28;20669;-71
2023/07/14 02:47:03;;;;;;;10.13;9.13;;;;;;;;;;10271015;28;20048;-72
2023/07/14 02:52:00;;;;;;;9.00;8.20;;;;;;;;;;10279768;28;20574;-70
2023/07/14 02:57:05;;;;;;;10.90;9.80;;;;;;;;;;10280180;28;20048;-70
2023/07/14 03:02:05;;;;;;;10.20;9.35;;;;;;;;;;10260394;28;20064;-71
2023/07/14 03:07:06;;;;;;;11.30;10.30;;;;;;;;;;10288708;28;20048;-71
2023/07/14 03:12:03;;;;;;;10.18;9.18;;;;;;;;;;10270091;28;20582;-70
2023/07/14 03:17:00;;;;;;;10.32;9.43;;;;;;;;;;10251766;28;20057;-69
2023/07/14 03:22:00;;;;;;;10.93;10.00;;;;;;;;;;10276962;28;20143;-70
2023/07/14 03:26:57;;;;;;;13.40;10.63;;;;;;;;;;10264415;28;20521;-72
2023/07/14 03:31:56;;;;;;;12.18;10.85;;;;;;;;;;10266103;28;20533;-72
2023/07/14 03:36:55;;;;;;;12.98;9.55;;;;;;;;;;10275024;28;20053;-72
2023/07/14 03:41:55;;;;;;;12.23;10.73;;;;;;;;;;10284578;28;20056;-72
2023/07/14 03:46:56;;;;;;;11.38;10.30;;;;;;;;;;10263134;28;20128;-72
2023/07/14 03:51:53;;;;;;;13.77;11.07;;;;;;;;;;10267616;28;20131;-72
2023/07/14 03:56:52;;;;;;;12.27;10.48;;;;;;;;;;10259892;28;20046;-72
2023/07/14 04:01:49;;;;;;;11.05;10.07;;;;;;;;;;10265829;28;20103;-72
2023/07/14 04:06:48;;;;;;;12.93;11.73;;;;;;;;;;10273410;28;20048;-72
2023/07/14 04:12:00;;;;;;;14.23;11.23;;;;;;;;;;10258237;28;20045;-73
2023/07/14 04:16:58;;;;;;;;;;;;;;;;;;10264437;28;20057;-71
2023/07/14 04:21:57;;;;;;;12.40;11.07;;;;;;;;;;10260134;28;19952;-70
2023/07/14 04:26:55;;;;;;;12.27;11.18;;;;;;;;;;10274911;28;20049;-73
2023/07/14 04:31:58;;;;;;;13.70;12.30;;;;;;;;;;10272848;28;20139;-70
2023/07/14 04:37:00;;;;;;;12.52;11.23;;;;;;;;;;10261355;28;20067;-71
2023/07/14 04:42:00;;;;;;;13.43;12.13;;;;;;;;;;10287224;28;20160;-70
2023/07/14 04:46:58;;;;;;;19.30;13.45;;;;;;;;;;10268083;28;20049;-70
2023/07/14 04:51:58;;;;;;;13.75;12.63;;;;;;;;;;10258787;28;20140;-71
2023/07/14 04:56:55;;;;;;;13.80;12.52;;;;;;;;;;10269929;28;20040;-71
2023/07/14 05:01:57;;;;;;;12.68;11.55;;;;;;;;;;10284618;28;20060;-70
2023/07/14 05:06:59;;;;;;;13.15;11.98;;;;;;;;;;10277730;28;20055;-71
2023/07/14 05:11:58;;;;;;;;;;;;;;;;;;10270128;28;20067;-71
2023/07/14 05:17:00;;;;;;;13.90;12.70;;;;;;;;;;10264123;28;20301;-71
2023/07/14 05:22:04;;;;;;;13.20;11.90;;;;;;;;;;10261422;28;20041;-71
2023/07/14 05:27:04;;;;;;;13.00;11.90;;;;;;;;;;10279119;28;20048;-71
2023/07/14 05:32:06;;;;;;;13.32;12.13;;;;;;;;;;10255665;28;20060;-70
2023/07/14 05:37:09;;;;;;;15.85;12.93;;;;;;;;;;10280858;28;20506;-70
2023/07/14 05:42:06;;;;;;;;;;;;;;;;;;10272619;28;20103;-70
2023/07/14 05:47:06;;;;;;;13.65;12.40;;;;;;;;;;10270653;28;19928;-70
2023/07/14 05:52:03;;;;;;;73.53;18.27;;;;;;;;;;10270889;28;20045;-69
2023/07/14 05:57:03;;;;;;;15.90;12.25;;;;;;;;;;10262360;28;20498;-70
2023/07/14 06:02:02;;;;;;;16.38;13.23;;;;;;;;;;10273536;28;20118;-69
2023/07/14 06:07:00;;;;;;;14.07;11.82;;;;;;;;;;10276950;28;20041;-70
2023/07/14 06:11:58;;;;;;;13.38;11.98;;;;;;;;;;10281305;28;20502;-69
2023/07/14 06:17:01;;;;;;;15.43;13.82;;;;;;;;;;10260418;28;20049;-71
2023/07/14 06:22:06;;;;;;;13.75;12.35;;;;;;;;;;10273183;28;20147;-69
2023/07/14 06:27:09;;;;;;;13.27;11.95;;;;;;;;;;10272046;28;20049;-69
2023/07/14 06:32:10;;;;;;;15.68;11.93;;;;;;;;;;10274708;28;20072;-69
2023/07/14 06:37:10;;;;;;;13.40;11.68;;;;;;;;;;10300108;28;20052;-69
2023/07/14 06:42:07;;;;;;;13.25;11.93;;;;;;;;;;10268372;28;20128;-70
2023/07/14 06:47:09;;;;;;;13.05;11.48;;;;;;;;;;10273384;28;20033;-69
2023/07/14 06:52:09;;;;;;;15.02;12.32;;;;;;;;;;10258917;28;20103;-69
2023/07/14 06:57:08;;;;;;;13.95;11.63;;;;;;;;;;10267370;28;20048;-69
2023/07/14 07:02:12;;;;;;;13.25;10.48;;;;;;;;;;10259361;28;20136;-68
2023/07/14 07:07:16;;;;;;;13.38;11.98;;;;;;;;;;10268198;28;20040;-69
2023/07/14 07:12:14;;;;;;;16.13;10.05;;;;;;;;;;10265898;28;20061;-72
2023/07/14 07:17:14;;;;;;;12.43;10.23;;;;;;;;;;10266577;28;20040;-73
2023/07/14 07:22:13;;;;;;;10.90;8.75;;;;;;;;;;10274710;28;20133;-71
2023/07/14 07:27:13;;;;;;;10.05;9.05;;;;;;;;;;10266523;28;20095;-71
2023/07/14 07:32:10;;;;;;;10.75;9.65;;;;;;;;;;10274659;28;20075;-71
2023/07/14 07:37:07;;;;;;;11.90;8.48;;;;;;;;;;10270227;28;20427;-71
2023/07/14 07:42:07;;;;;;;11.02;7.90;;;;;;;;;;10266353;28;20048;-70
2023/07/14 07:47:05;;;;;;;9.68;7.90;;;;;;;;;;10264931;28;20737;-70
2023/07/14 07:52:05;;;;;;;8.98;7.15;;;;;;;;;;10257280;28;20059;-71
2023/07/14 07:57:02;;;;;;;7.57;6.82;;;;;;;;;;10270794;28;20049;-70
2023/07/14 08:02:06;;;;;;;11.57;7.55;;;;;;;;;;10270139;28;20053;-70
2023/07/14 08:07:13;;;;;;;10.00;7.93;;;;;;;;;;10267672;28;20045;-70
2023/07/14 08:12:10;;;;;;;12.48;6.93;;;;;;;;;;10295730;28;20049;-70
2023/07/14 08:17:09;;;;;;;9.65;7.25;;;;;;;;;;10268029;28;20410;-70
2023/07/14 08:22:09;;;;;;;9.32;7.43;;;;;;;;;;10270208;28;20415;-70
2023/07/14 08:27:13;;;;;;;11.27;7.30;;;;;;;;;;10279946;28;20045;-71
2023/07/14 08:32:15;;;;;;;9.77;7.85;;;;;;;;;;10271686;28;20045;-70
2023/07/14 08:37:15;;;;;;;9.35;7.38;;;;;;;;;;10281064;28;20095;-70
2023/07/14 08:42:34;;;;;;;8.63;7.45;;;;;;;;;;10265293;28;20040;-70
2023/07/14 08:47:37;;;;;;;9.40;7.85;;;;;;;;;;10261217;28;20534;-71
2023/07/14 08:52:44;;;;;;;10.35;7.30;;;;;;;;;;10276155;28;20155;-71
2023/07/14 08:58:03;;;;;;;8.00;7.20;;;;;;;;;;10261370;28;20087;-71
2023/07/14 09:03:21;;;;;;;8.07;6.73;;;;;;;;;;10298680;28;20040;-71
2023/07/14 09:08:23;;;;;;;7.60;6.78;;;;;;;;;;10280604;28;20053;-72
2023/07/14 09:13:56;;;;;;;7.82;6.82;;;;;;;;;;10272168;28;20073;-71
2023/07/14 09:19:03;;;;;;;8.15;7.35;;;;;;;;;;10251991;28;20053;-71
2023/07/14 09:24:13;;;;;;;7.50;6.80;;;;;;;;;;10265039;28;20041;-72
2023/07/14 09:29:18;;;;;;;7.40;6.68;;;;;;;;;;10266417;28;20033;-71
2023/07/14 09:34:35;;;;;;;8.82;7.40;;;;;;;;;;10278551;28;20569;-71
2023/07/14 09:39:42;;;;;;;8.32;7.25;;;;;;;;;;10271570;28;20048;-70
2023/07/14 09:44:47;;;;;;;8.10;6.90;;;;;;;;;;10263604;28;20092;-70
2023/07/14 09:49:46;;;;;;;9.30;7.70;;;;;;;;;;10270731;28;20128;-70
2023/07/14 09:55:13;;;;;;;6.75;6.05;;;;;;;;;;10265176;28;20053;-71
2023/07/14 10:00:19;;;;;;;11.23;7.18;;;;;;;;;;10264409;28;20056;-69
2023/07/14 10:05:25;;;;;;;7.50;6.72;;;;;;;;;;10284440;28;20072;-70
2023/07/14 10:10:26;;;;;;;8.85;7.07;;;;;;;;;;10279816;28;20057;-71
2023/07/14 10:15:24;;;;;;;7.10;6.45;;;;;;;;;;10265215;28;20095;-70
2023/07/14 10:20:29;;;;;;;7.53;6.72;;;;;;;;;;10274905;28;20568;-70
2023/07/14 10:25:29;;;;;;;8.57;6.70;;;;;;;;;;10261718;28;20049;-69
2023/07/14 10:30:40;;;;;;;8.00;7.30;;;;;;;;;;10251209;28;20042;-69
2023/07/14 10:35:37;;;;;;;6.60;6.10;;;;;;;;;;10259157;28;20476;-70
2023/07/14 10:40:41;;;;;;;7.30;6.60;;;;;;;;;;10263706;28;20049;-70
2023/07/14 10:45:39;;;;;;;7.75;6.80;;;;;;;;;;10268326;28;20526;-70
2023/07/14 10:50:48;;;;;;;8.13;7.28;;;;;;;;;;10274544;28;20087;-69
2023/07/14 10:55:47;;;;;;;8.07;6.95;;;;;;;;;;10272366;28;20048;-70
2023/07/14 11:00:46;;;;;;;10.00;8.98;;;;;;;;;;10287083;28;20047;-69
2023/07/14 11:05:56;;;;;;;7.93;7.03;;;;;;;;;;10304813;28;20507;-70
2023/07/14 11:10:59;;;;;;;7.50;6.80;;;;;;;;;;10281601;28;20522;-70
2023/07/14 11:16:00;;;;;;;7.93;7.15;;;;;;;;;;10274248;28;20048;-71
2023/07/14 11:21:11;;;;;;;10.55;8.18;;;;;;;;;;10267706;28;20527;-70
2023/07/14 11:26:17;;;;;;;7.72;6.80;;;;;;;;;;10258511;28;20051;-69
2023/07/14 11:31:26;;;;;;;8.68;7.68;;;;;;;;;;10256106;28;20410;-70
2023/07/14 11:36:28;;;;;;;8.05;7.25;;;;;;;;;;10279242;28;20176;-70
2023/07/14 11:41:33;;;;;;;8.90;7.63;;;;;;;;;;10285465;28;20045;-69
2023/07/14 11:46:33;;;;;;;8.47;7.53;;;;;;;;;;10269989;28;20707;-70
2023/07/14 11:51:52;;;;;;;8.18;7.38;;;;;;;;;;10272937;28;20395;-70
2023/07/14 11:57:03;;;;;;;7.88;7.05;;;;;;;;;;10267675;28;20571;-70
2023/07/14 12:02:29;;;;;;;8.15;7.35;;;;;;;;;;10266128;28;20041;-70
2023/07/14 12:07:31;;;;;;;8.77;7.30;;;;;;;;;;10259060;28;20171;-70
2023/07/14 12:12:33;;;;;;;9.95;7.13;;;;;;;;;;10254565;28;20057;-70
2023/07/14 12:17:33;;;;;;;;;;;;;;;;;;10271539;28;20059;-70
2023/07/14 12:22:49;;;;;;;7.85;7.05;;;;;;;;;;10279505;28;20538;-69
2023/07/14 12:27:53;;;;;;;8.73;7.18;;;;;;;;;;10286655;28;20079;-70
2023/07/14 12:32:53;;;;;;;7.63;6.90;;;;;;;;;;10246741;28;20107;-70
2023/07/14 12:37:58;;;;;;;8.48;7.68;;;;;;;;;;10273173;28;20049;-70
2023/07/14 12:42:55;;;;;;;8.00;7.20;;;;;;;;;;10286136;28;20890;-69
2023/07/14 12:47:56;;;;;;;9.30;7.70;;;;;;;;;;10280154;28;20044;-70
2023/07/14 12:52:56;;;;;;;8.45;7.18;;;;;;;;;;10284782;28;20450;-69
2023/07/14 12:57:58;;;;;;;7.82;6.97;;;;;;;;;;10291171;28;20040;-69
2023/07/14 13:03:03;;;;;;;7.53;6.72;;;;;;;;;;10287854;28;20075;-69
2023/07/14 13:08:03;;;;;;;7.75;7.00;;;;;;;;;;10277355;28;20045;-69
2023/07/14 13:13:05;;;;;;;7.17;6.57;;;;;;;;;;10289012;28;20087;-69
2023/07/14 13:18:09;;;;;;;7.68;6.90;;;;;;;;;;10282560;28;20045;-69
2023/07/14 13:23:19;;;;;;;7.90;7.18;;;;;;;;;;10279492;28;20086;-69
2023/07/14 13:28:17;;;;;;;8.77;6.28;;;;;;;;;;10282189;28;20672;-69
2023/07/14 13:33:15;;;;;;;7.70;7.00;;;;;;;;;;10282861;28;20532;-70
2023/07/14 13:38:13;;;;;;;7.45;6.78;;;;;;;;;;10266990;28;20111;-70
2023/07/14 13:43:26;;;;;;;7.68;6.78;;;;;;;;;;10277242;28;20135;-70
2023/07/14 13:48:24;;;;;;;8.35;6.70;;;;;;;;;;10274990;28;20076;-69
2023/07/14 13:53:21;;;;;;;7.82;7.03;;;;;;;;;;10258065;28;20091;-70
2023/07/14 13:58:18;;;;;;;8.60;7.70;;;;;;;;;;10274493;28;20053;-70
2023/07/14 14:03:19;;;;;;;8.38;7.18;;;;;;;;;;10262619;28;20487;-70
2023/07/14 14:08:19;;;;;;;8.30;7.05;;;;;;;;;;10278495;28;20117;-67
2023/07/14 14:13:18;;;;;;;8.57;7.47;;;;;;;;;;10274924;28;20056;-67
2023/07/14 14:18:22;;;;;;;8.32;7.22;;;;;;;;;;10275466;28;20041;-67
2023/07/14 14:23:19;;;;;;;7.28;6.65;;;;;;;;;;10272113;28;20045;-67
2023/07/14 14:28:16;;;;;;;8.32;7.00;;;;;;;;;;10277718;28;20083;-67
2023/07/14 14:33:14;;;;;;;8.38;6.45;;;;;;;;;;10267997;28;20534;-66
2023/07/14 14:38:12;;;;;;;8.23;7.22;;;;;;;;;;10272047;28;20041;-67
2023/07/14 14:43:29;;;;;;;8.40;7.32;;;;;;;;;;10292750;28;20434;-67
2023/07/14 14:48:27;;;;;;;8.10;7.35;;;;;;;;;;10260522;28;20048;-67
2023/07/14 14:53:36;;;;;;;7.70;7.00;;;;;;;;;;10280759;28;20127;-67
2023/07/14 14:58:33;;;;;;;9.02;6.78;;;;;;;;;;10270638;28;20052;-66
2023/07/14 15:03:30;;;;;;;9.13;6.82;;;;;;;;;;10268058;28;20507;-66
2023/07/14 15:08:26;;;;;;;8.25;7.03;;;;;;;;;;10245340;28;20124;-66
2023/07/14 15:13:26;;;;;;;8.30;6.30;;;;;;;;;;10248528;28;20071;-69
2023/07/14 15:18:22;;;;;;;8.38;6.72;;;;;;;;;;10256561;28;20136;-66
2023/07/14 15:23:19;;;;;;;7.57;6.80;;;;;;;;;;10263680;28;20045;-68
2023/07/14 15:28:20;;;;;;;9.15;6.72;;;;;;;;;;10262149;28;20032;-69
2023/07/14 15:33:16;;;;;;;7.37;6.67;;;;;;;;;;10277115;28;20052;-68
2023/07/14 15:38:13;;;;;;;7.97;7.00;;;;;;;;;;10288274;28;20037;-68
2023/07/14 15:43:19;;;;;;;8.07;7.28;;;;;;;;;;10262084;28;20080;-68
2023/07/14 15:48:18;;;;;;;8.23;7.03;;;;;;;;;;10263815;28;20044;-68
2023/07/14 15:53:38;;;;;;;9.07;7.25;;;;;;;;;;10262464;28;20111;-70
2023/07/14 15:58:35;;;;;;;7.10;6.50;;;;;;;;;;10275942;28;20067;-70
2023/07/14 16:03:31;;;;;;;7.40;6.57;;;;;;;;;;10260813;28;20041;-70
2023/07/14 16:08:37;;;;;;;7.93;7.15;;;;;;;;;;10258097;28;20044;-70
2023/07/14 16:13:34;;;;;;;10.38;9.45;;;;;;;;;;10265237;28;20061;-70
2023/07/14 16:18:30;;;;;;;8.20;7.50;;;;;;;;;;10253464;28;20045;-70
2023/07/14 16:23:27;;;;;;;7.82;6.60;;;;;;;;;;10276626;28;20041;-70
2023/07/14 16:28:24;;;;;;;8.75;6.95;;;;;;;;;;10273796;28;20076;-71
2023/07/14 16:33:21;;;;;;;8.18;7.47;;;;;;;;;;10268204;28;20041;-66
2023/07/14 16:38:18;;;;;;;7.55;6.75;;;;;;;;;;10282708;28;20051;-66
2023/07/14 16:43:18;;;;;;;7.88;7.00;;;;;;;;;;10272972;28;20499;-66
2023/07/14 16:48:14;;;;;;;8.00;7.30;;;;;;;;;;10271321;28;20071;-66
2023/07/14 16:53:12;;;;;;;7.35;6.50;;;;;;;;;;10264374;28;20084;-70
2023/07/14 16:58:14;;;;;;;7.95;7.10;;;;;;;;;;10271207;28;20041;-70
2023/07/14 17:03:22;;;;;;;8.02;7.32;;;;;;;;;;10242748;28;20055;-70
2023/07/14 17:08:21;;;;;;;7.28;6.63;;;;;;;;;;10264104;28;20065;-71
2023/07/14 17:13:19;;;;;;;7.32;6.63;;;;;;;;;;10256010;28;20499;-71
2023/07/14 17:18:27;;;;;;;9.27;6.68;;;;;;;;;;10257304;28;20127;-71
2023/07/14 17:23:29;;;;;;;8.13;7.40;;;;;;;;;;10251431;28;20052;-72
2023/07/14 17:28:26;;;;;;;7.68;6.43;;;;;;;;;;10258501;28;20099;-71
2023/07/14 17:33:28;;;;;;;8.02;6.53;;;;;;;;;;10263890;28;20053;-71
2023/07/14 17:38:27;;;;;;;7.65;6.95;;;;;;;;;;10263464;28;20053;-72
2023/07/14 17:43:24;;;;;;;7.60;6.75;;;;;;;;;;10264983;28;20036;-71
2023/07/14 17:48:20;;;;;;;7.68;6.70;;;;;;;;;;10257008;28;20045;-72
2023/07/14 17:53:21;;;;;;;7.05;6.35;;;;;;;;;;10268537;28;20540;-71
2023/07/14 17:58:18;;;;;;;7.97;7.18;;;;;;;;;;10259049;28;20049;-71
2023/07/14 18:03:19;;;;;;;8.20;7.50;;;;;;;;;;10263779;28;20487;-72
2023/07/14 18:08:20;;;;;;;7.95;7.15;;;;;;;;;;10247419;28;20037;-71
2023/07/14 18:13:20;;;;;;;8.23;7.38;;;;;;;;;;10272341;28;20048;-70
2023/07/14 18:18:19;;;;;;;7.95;7.18;;;;;;;;;;10262881;28;20515;-71
2023/07/14 18:23:20;;;;;;;8.38;7.45;;;;;;;;;;10278538;28;20036;-71
2023/07/14 18:28:18;;;;;;;8.02;7.15;;;;;;;;;;10270657;28;20081;-70
2023/07/14 18:33:19;;;;;;;8.07;7.05;;;;;;;;;;10267403;28;20530;-71
2023/07/14 18:38:16;;;;;;;7.65;6.82;;;;;;;;;;10265398;28;20071;-70
2023/07/14 18:43:33;;;;;;;7.72;7.03;;;;;;;;;;10269159;28;20095;-70
2023/07/14 18:48:30;;;;;;;7.75;7.15;;;;;;;;;;10255800;28;20055;-69
2023/07/14 18:53:27;;;;;;;7.28;6.55;;;;;;;;;;10258699;28;20040;-70
2023/07/14 18:58:24;;;;;;;7.97;7.20;;;;;;;;;;10263381;28;20036;-70
2023/07/14 19:03:41;;;;;;;8.07;7.28;;;;;;;;;;10260474;28;20041;-70
2023/07/14 19:08:38;;;;;;;8.30;7.60;;;;;;;;;;10252181;28;20041;-71
2023/07/14 19:13:35;;;;;;;9.02;7.25;;;;;;;;;;10260000;28;20526;-70
2023/07/14 19:18:32;;;;;;;8.65;7.85;;;;;;;;;;10273437;28;20064;-70
2023/07/14 19:23:28;;;;;;;9.27;8.30;;;;;;;;;;10256651;28;20486;-70
2023/07/14 19:28:26;;;;;;;10.73;8.35;;;;;;;;;;10263099;28;20037;-70
2023/07/14 19:33:22;;;;;;;9.50;8.60;;;;;;;;;;10252743;28;20518;-69
2023/07/14 19:38:26;;;;;;;9.55;8.65;;;;;;;;;;10263456;28;20049;-71
2023/07/14 19:43:27;;;;;;;9.30;8.40;;;;;;;;;;10261068;28;20045;-70
2023/07/14 19:48:26;;;;;;;9.40;8.40;;;;;;;;;;10276955;28;20037;-70
2023/07/14 19:53:25;;;;;;;9.65;8.75;;;;;;;;;;10253428;28;20053;-70
2023/07/14 19:58:23;;;;;;;9.90;8.90;;;;;;;;;;10260419;28;20159;-70
2023/07/14 20:03:25;;;;;;;9.07;8.07;;;;;;;;;;10287435;28;20059;-70
2023/07/14 20:08:23;;;;;;;8.85;7.95;;;;;;;;;;10272736;28;20113;-70
2023/07/14 20:13:25;;;;;;;9.77;8.90;;;;;;;;;;10264155;28;20045;-71
2023/07/14 20:18:25;;;;;;;8.63;7.82;;;;;;;;;;10258026;28;20053;-70
2023/07/14 20:23:27;;;;;;;9.02;8.20;;;;;;;;;;10245546;28;20050;-71
2023/07/14 20:28:23;;;;;;;9.30;8.17;;;;;;;;;;10263546;28;20037;-71
2023/07/14 20:33:21;;;;;;;11.85;8.55;;;;;;;;;;10272860;28;20045;-70
2023/07/14 20:38:18;;;;;;;8.85;7.95;;;;;;;;;;10274455;28;20044;-71
2023/07/14 20:43:16;;;;;;;8.65;7.75;;;;;;;;;;10258857;28;20033;-71
2023/07/14 20:48:15;;;;;;;9.32;8.32;;;;;;;;;;10253365;28;20041;-70
2023/07/14 20:53:17;;;;;;;8.80;7.63;;;;;;;;;;10245222;28;20048;-66
2023/07/14 20:58:16;;;;;;;8.80;8.00;;;;;;;;;;10263470;28;20143;-67
2023/07/14 21:03:16;;;;;;;8.65;7.65;;;;;;;;;;10247097;28;20096;-68
2023/07/14 21:08:32;;;;;;;9.30;8.40;;;;;;;;;;10262568;28;20033;-66
2023/07/14 21:13:28;;;;;;;8.60;7.55;;;;;;;;;;10267877;28;20049;-66
2023/07/14 21:18:29;;;;;;;8.68;7.78;;;;;;;;;;10259036;28;20576;-65
2023/07/14 21:23:35;;;;;;;8.50;7.70;;;;;;;;;;10266178;28;20097;-66
2023/07/14 21:28:34;;;;;;;9.43;7.78;;;;;;;;;;10268457;28;20040;-66
2023/07/14 21:33:32;;;;;;;9.07;8.18;;;;;;;;;;10269612;28;20049;-66
2023/07/14 21:38:30;;;;;;;7.97;7.18;;;;;;;;;;10264819;28;20044;-66
2023/07/14 21:43:38;;;;;;;9.02;8.23;;;;;;;;;;10273244;28;20607;-66
2023/07/14 21:48:35;;;;;;;8.10;7.30;;;;;;;;;;10256720;28;20065;-66
2023/07/14 21:53:32;;;;;;;8.85;7.68;;;;;;;;;;10260337;28;20048;-66
2023/07/14 21:58:29;;;;;;;8.95;7.90;;;;;;;;;;10264423;28;20064;-67
2023/07/14 22:03:27;;;;;;;9.75;7.63;;;;;;;;;;10272718;28;20042;-67
2023/07/14 22:08:26;;;;;;;8.82;7.35;;;;;;;;;;10269231;28;20851;-67
2023/07/14 22:13:33;;;;;;;9.32;8.05;;;;;;;;;;10258155;28;20080;-66
2023/07/14 22:18:30;;;;;;;10.30;8.10;;;;;;;;;;10266571;28;20050;-66
2023/07/14 22:23:41;;;;;;;8.43;7.67;;;;;;;;;;10263864;28;20557;-67
2023/07/14 22:28:37;;;;;;;9.32;7.70;;;;;;;;;;10285375;28;20043;-67
2023/07/14 22:33:34;;;;;;;8.85;7.93;;;;;;;;;;10264201;28;20045;-66
2023/07/14 22:38:31;;;;;;;8.77;7.95;;;;;;;;;;10264009;28;20121;-65
2023/07/14 22:43:28;;;;;;;9.13;8.23;;;;;;;;;;10274527;28;20033;-66
2023/07/14 22:48:24;;;;;;;8.75;8.02;;;;;;;;;;10269302;28;20040;-66
2023/07/14 22:53:22;;;;;;;10.13;9.23;;;;;;;;;;10273668;28;20518;-68
2023/07/14 22:58:19;;;;;;;9.82;9.00;;;;;;;;;;10259514;28;20060;-68
2023/07/14 23:03:18;;;;;;;10.82;9.73;;;;;;;;;;10261435;28;20040;-68
2023/07/14 23:08:14;;;;;;;10.98;9.88;;;;;;;;;;10270462;28;20060;-68
2023/07/14 23:13:12;;;;;;;12.65;9.02;;;;;;;;;;10268622;28;20044;-66
2023/07/14 23:18:08;;;;;;;9.60;8.55;;;;;;;;;;10265141;28;20095;-65
2023/07/14 23:23:09;;;;;;;9.18;8.38;;;;;;;;;;10267396;28;20529;-65
2023/07/14 23:28:05;;;;;;;10.23;8.60;;;;;;;;;;10271792;28;20053;-67
2023/07/14 23:33:13;;;;;;;10.98;8.68;;;;;;;;;;10261350;28;20502;-66
2023/07/14 23:38:11;;;;;;;9.07;8.18;;;;;;;;;;10269341;28;20514;-65
2023/07/14 23:43:12;;;;;;;9.65;8.52;;;;;;;;;;10271668;28;20499;-65
2023/07/14 23:48:12;;;;;;;9.18;8.15;;;;;;;;;;10258199;28;20051;-66
2023/07/14 23:53:28;;;;;;;10.55;7.95;;;;;;;;;;10272403;28;20051;-66
2023/07/14 23:58:31;;;;;;;8.98;8.07;;;;;;;;;;10271789;28;20423;-67
